• Join FlightAware (Why Join?)
  • Login
  • US Flag 
07:01PM EDT


 

Airport Tracker/Info


-or-


 

Live Flight TrackerFlight Track Log ✈ CTL62 ✈ 30-Apr-2013 ✈ KOSU - KPWK

Flight Track Log - Related Links

Times and Time Zones

All times are in EDT time to prevent confusion due to time zone crossing. See the CTL62 flight status page for this flight to view local times or setup timezone preferences in your user account.

Time Position Orientation Groundspeed Altitude Reporting Facility
EDT Latitude Longitude Course Direction KTS MPH feet Rate Location/Type
10:39PM 40.0778 -83.0658 71° East 104 120 1,000  Level Indianapolis Center
10:39PM 40.0806 -83.0553 71° East 102 117 1,500 960 Climbing Indianapolis Center
10:41PM 40.1119 -83.0203 40° Northeast 111 128 2,600 900 Climbing Indianapolis Center
10:41PM 40.1311 -83.0503 310° West 138 159 3,400 720 Climbing Indianapolis Center
10:42PM 40.1511 -83.0964 300° West 145 167 4,000 540 Climbing Indianapolis Center
10:43PM 40.1728 -83.1453 300° West 160 184 4,600 540 Climbing Indianapolis Center
10:44PM 40.1772 -83.1497 323° Northwest 151 174 4,700 540 Climbing Indianapolis Center
10:44PM 40.1964 -83.1972 298° West 155 178 5,200 660 Climbing Indianapolis Center
10:45PM 40.1989 -83.1994 326° Northwest 155 178 5,400 660 Climbing Indianapolis Center
10:46PM 40.2253 -83.2556 302° West 154 177 6,100 540 Climbing Indianapolis Center
10:47PM 40.2467 -83.3036 300° West 153 176 6,600 540 Climbing Indianapolis Center
10:48PM 40.2694 -83.3528 301° West 156 180 7,200 480 Climbing Indianapolis Center
10:49PM 40.2914 -83.4011 301° West 155 178 7,600 360 Climbing Indianapolis Center
10:50PM 40.3142 -83.4481 302° West 153 176 8,000 180 Climbing Indianapolis Center
10:51PM 40.3367 -83.4997 300° West 159 183 8,000  Level Indianapolis Center
10:52PM 40.3614 -83.5553 300° West 171 197 8,000  Level Indianapolis Center
10:54PM 40.4089 -83.6533 302° West 174 200 8,100  Climbing Chicago Center
10:55PM 40.4328 -83.7072 300° West 173 199 8,100 -60 Level Chicago Center
10:56PM 40.4572 -83.7756 295° West 173 199 8,000 -60 Descending Indianapolis Center
10:57PM 40.4831 -83.8311 301° West 175 201 8,000  Level Indianapolis Center
10:58PM 40.5058 -83.8864 298° West 173 199 8,000  Level Indianapolis Center
10:59PM 40.5342 -83.9519 300° West 174 200 8,000  Level Indianapolis Center
11:00PM 40.5594 -84.0058 302° West 173 199 8,000  Level Indianapolis Center
11:01PM 40.5833 -84.0608 300° West 173 199 8,000  Level Indianapolis Center
11:02PM 40.6089 -84.1156 302° West 174 200 8,000  Level Indianapolis Center
11:03PM 40.6322 -84.1717 299° West 173 199 8,000  Level Indianapolis Center
11:04PM 40.6575 -84.2261 301° West 174 200 8,000  Level Indianapolis Center
11:05PM 40.6819 -84.2803 301° West 171 197 8,000  Level Indianapolis Center
11:06PM 40.7053 -84.3369 299° West 173 199 8,000  Level Indianapolis Center
11:07PM 40.7225 -84.3769 300° West 171 197 8,000  Level Chicago Center
11:08PM 40.7456 -84.4311 299° West 172 198 8,000  Level Chicago Center
11:09PM 40.7689 -84.4875 299° West 173 199 8,000  Level Chicago Center
11:10PM 40.7928 -84.5417 300° West 173 199 8,000  Level Chicago Center
11:11PM 40.8150 -84.5978 298° West 172 198 8,000  Level Chicago Center
11:12PM 40.8378 -84.6542 298° West 173 199 8,000  Level Chicago Center
11:13PM 40.8661 -84.7208 299° West 175 201 8,000  Level Chicago Center
11:14PM 40.8886 -84.7756 299° West 171 197 8,000  Level Chicago Center
11:15PM 40.9133 -84.8303 301° West 173 199 8,000  Level Chicago Center
11:16PM 40.9372 -84.8872 299° West 176 203 8,000  Level Chicago Center
11:17PM 40.9592 -84.9419 298° West 171 197 8,000  Level Chicago Center
11:18PM 40.9842 -84.9956 302° West 172 198 8,000  Level Chicago Center
11:19PM 41.0081 -85.0508 300° West 173 199 8,000  Level Chicago Center
11:20PM 41.0328 -85.1053 301° West 172 198 8,000  Level Chicago Center
11:21PM 41.0547 -85.1600 298° West 171 197 8,000  Level Chicago Center
11:22PM 41.0800 -85.2147 302° West 172 198 8,000  Level Chicago Center
11:24PM 41.1233 -85.3250 298° West 168 193 8,000  Level Chicago Center
11:25PM 41.1475 -85.3797 300° West 170 196 8,000  Level Chicago Center
11:26PM 41.1711 -85.4353 299° West 172 198 8,000  Level Chicago Center
11:27PM 41.1950 -85.4911 300° West 173 199 8,000  Level Chicago Center
11:28PM 41.2169 -85.5467 298° West 170 196 8,000  Level Chicago Center
11:29PM 41.2417 -85.6008 301° West 172 198 8,000  Level Chicago Center
11:30PM 41.2636 -85.6569 298° West 172 198 8,000  Level Chicago Center
11:31PM 41.2906 -85.7236 298° West 171 197 8,000  Level Chicago Center
11:32PM 41.3119 -85.7783 298° West 167 192 8,000  Level Chicago Center
11:33PM 41.3331 -85.8350 296° West 170 196 8,100  Climbing Chicago Center
11:34PM 41.3558 -85.8908 299° West 172 198 8,100  Level Chicago Center
11:35PM 41.3778 -85.9456 298° West 168 193 8,100 -60 Level Chicago Center
11:36PM 41.4003 -86.0011 298° West 171 197 8,000  Descending Chicago Center
11:37PM 41.4217 -86.0575 297° West 171 197 8,100  Climbing Chicago Center
11:38PM 41.4375 -86.1147 290° West 166 191 8,000 -60 Descending Chicago Center
11:39PM 41.4606 -86.1683 300° West 166 191 8,000  Level Chicago Center
11:40PM 41.4819 -86.2242 297° West 168 193 8,000  Level Chicago Center
11:41PM 41.5042 -86.2789 298° West 169 194 8,100  Climbing Chicago Center
11:42PM 41.5253 -86.3325 298° West 165 190 8,000  Descending Chicago Center
11:43PM 41.5467 -86.3872 298° West 164 189 8,100  Climbing Chicago Center
11:44PM 41.5683 -86.4425 298° West 168 193 8,100  Level Chicago Center
11:45PM 41.5889 -86.4981 296° West 168 193 8,100 -120 Level Chicago Center
11:46PM 41.6092 -86.5544 296° West 169 194 7,900 -300 Descending Chicago Center
11:47PM 41.6322 -86.6144 297° West 179 206 7,500 -540 Descending Chicago Center
11:48PM 41.6592 -86.6867 297° West 181 208 6,900 -660 Descending Chicago Center
11:50PM 41.6742 -86.7465 289° West  Level FlightAware Approximate
11:53PM 41.7667 -86.9833 299° West 192 221 4,000  Level Chicago TRACON
11:55PM 41.7912 -87.0566 294° West  Level FlightAware Approximate
11:55PM 41.8167 -87.1000 294° West 175 201 3,900  Level Chicago TRACON
11:56PM 41.8231 -87.1136 302° West 176 203 3,800 -420 Descending Chicago Center
11:57PM 41.8011 -87.1334 299° West  Level FlightAware Approximate
11:57PM 41.8458 -87.1761 296° West 183 211 3,400  Level Chicago Center
11:58PM 41.8229 -87.1862 299° West  Level FlightAware Approximate
11:58PM 41.8694 -87.2378 297° West 186 214 3,000  Level Chicago Center
11:59PM 41.8446 -87.2389 299° West  Level FlightAware Approximate
11:59PM 41.8922 -87.2961 298° West 183 211 3,100  Level Chicago Center
12:00AM 41.9217 -87.3622 301° West 178 205 3,000 -60 Descending Chicago Center
12:00AM 41.9500 -87.4000 315° West 177 204 3,000  Level Chicago TRACON
12:01AM 41.9667 -87.4500 294° West 176 203 3,000  Level Chicago TRACON
12:02AM 42.0000 -87.5167 304° West 174 200 3,100  Climbing Chicago TRACON
12:03AM 42.0167 -87.5667 294° West 176 203 3,100 -180 Level Chicago TRACON
12:04AM 42.0500 -87.6167 312° West 182 209 2,800 -540 Descending Chicago TRACON
12:05AM 42.0833 -87.6833 304° West 191 220 2,100 -360 Descending Chicago TRACON
12:06AM 42.1000 -87.7333 294° West 172 198 2,100  Level Chicago TRACON
12:07AM 42.1167 -87.7833 294° West 145 167 2,100  Level Chicago TRACON